createdAt,value
2022-11-26T00:00:14.427Z,16.44
2022-11-26T00:00:45.834Z,16.44
2022-11-26T00:01:17.230Z,16.44
2022-11-26T00:01:48.763Z,16.42
2022-11-26T00:02:20.260Z,16.43
2022-11-26T00:02:51.971Z,16.42
2022-11-26T00:03:23.529Z,16.43
2022-11-26T00:03:54.959Z,16.43
2022-11-26T00:04:26.352Z,16.43
2022-11-26T00:04:57.763Z,16.42
2022-11-26T00:05:29.151Z,16.42
2022-11-26T00:06:00.541Z,16.41
2022-11-26T00:06:32.082Z,16.41
2022-11-26T00:07:03.546Z,16.41
2022-11-26T00:07:34.968Z,16.41
2022-11-26T00:08:06.388Z,16.41
2022-11-26T00:08:37.775Z,16.40
2022-11-26T00:09:09.165Z,16.40
2022-11-26T00:09:40.616Z,16.40
2022-11-26T00:10:12.012Z,16.40
2022-11-26T00:10:43.403Z,16.39
2022-11-26T00:11:14.823Z,16.39
2022-11-26T00:11:46.332Z,16.39
2022-11-26T00:12:17.762Z,16.39
2022-11-26T00:12:49.154Z,16.39
2022-11-26T00:13:20.537Z,16.38
2022-11-26T00:13:51.943Z,16.39
2022-11-26T00:14:23.339Z,16.38
2022-11-26T00:14:54.747Z,16.38
2022-11-26T00:15:26.135Z,16.37
2022-11-26T00:15:57.530Z,16.38
2022-11-26T00:16:28.958Z,16.37
2022-11-26T00:17:00.564Z,16.37
2022-11-26T00:17:32.113Z,16.36
2022-11-26T00:18:03.527Z,16.35
2022-11-26T00:18:34.914Z,16.36
2022-11-26T00:19:06.308Z,16.36
2022-11-26T00:19:37.705Z,16.35
2022-11-26T00:20:09.113Z,16.35
2022-11-26T00:20:40.499Z,16.34
2022-11-26T00:21:11.896Z,16.35
2022-11-26T00:21:43.296Z,16.33
2022-11-26T00:22:14.763Z,16.33
2022-11-26T00:22:46.178Z,16.32
2022-11-26T00:23:17.583Z,16.33
2022-11-26T00:23:48.976Z,16.32
2022-11-26T00:24:20.382Z,16.33
2022-11-26T00:24:51.891Z,16.33
2022-11-26T00:25:23.327Z,16.32
2022-11-26T00:25:54.735Z,16.32
2022-11-26T00:26:26.149Z,16.31
2022-11-26T00:26:57.544Z,16.30
2022-11-26T00:27:29.023Z,16.30
2022-11-26T00:28:00.416Z,16.29
2022-11-26T00:28:31.823Z,16.30
2022-11-26T00:29:03.210Z,16.29
2022-11-26T00:29:34.606Z,16.29
2022-11-26T00:30:06.025Z,16.30
2022-11-26T00:30:37.419Z,16.29
2022-11-26T00:31:08.815Z,16.28
2022-11-26T00:31:40.231Z,16.28
2022-11-26T00:32:11.754Z,16.27
2022-11-26T00:32:43.311Z,16.29
2022-11-26T00:33:14.768Z,16.28
2022-11-26T00:33:46.211Z,16.28
2022-11-26T00:34:17.607Z,16.28
2022-11-26T00:34:48.995Z,16.28
2022-11-26T00:35:20.419Z,16.26
2022-11-26T00:35:51.822Z,16.27
2022-11-26T00:36:23.219Z,16.27
2022-11-26T00:36:54.603Z,16.27
2022-11-26T00:37:25.993Z,16.26
2022-11-26T00:37:57.451Z,16.26
2022-11-26T00:38:28.856Z,16.26
2022-11-26T00:39:00.246Z,16.25
2022-11-26T00:39:31.649Z,16.25
2022-11-26T00:40:03.043Z,16.24
2022-11-26T00:40:34.444Z,16.25
2022-11-26T00:41:05.829Z,16.24
2022-11-26T00:41:37.223Z,16.23
2022-11-26T00:42:08.611Z,16.23
2022-11-26T00:42:40.007Z,16.23
2022-11-26T00:43:11.524Z,16.22
2022-11-26T00:43:42.911Z,16.22
2022-11-26T00:44:14.304Z,16.22
2022-11-26T00:44:45.687Z,16.21
2022-11-26T00:45:17.083Z,16.21
2022-11-26T00:45:48.536Z,16.21
2022-11-26T00:46:20.013Z,16.20
2022-11-26T00:46:51.446Z,16.19
2022-11-26T00:47:22.849Z,16.19
2022-11-26T00:47:54.256Z,16.18
2022-11-26T00:48:25.679Z,16.19
2022-11-26T00:48:57.113Z,16.18
2022-11-26T00:49:28.514Z,16.18
2022-11-26T00:49:59.975Z,16.18
2022-11-26T00:50:31.366Z,16.19
2022-11-26T00:51:02.779Z,16.18
2022-11-26T00:51:34.171Z,16.17
2022-11-26T00:52:05.579Z,16.17
2022-11-26T00:52:36.988Z,16.17
2022-11-26T00:53:08.394Z,16.17
2022-11-26T00:53:39.791Z,16.16
2022-11-26T00:54:11.199Z,16.16
2022-11-26T00:54:42.596Z,16.17
2022-11-26T00:55:13.984Z,16.17
2022-11-26T00:55:45.389Z,16.16
2022-11-26T00:56:16.802Z,16.15
2022-11-26T00:56:48.211Z,16.16
2022-11-26T00:57:19.601Z,16.15
2022-11-26T00:57:50.991Z,16.15
2022-11-26T00:58:22.498Z,16.15
2022-11-26T00:58:53.882Z,16.15
2022-11-26T00:59:25.283Z,16.15
2022-11-26T00:59:56.676Z,16.14
2022-11-26T01:00:28.062Z,16.14
2022-11-26T01:00:59.547Z,16.13
2022-11-26T01:01:31.060Z,16.13
2022-11-26T01:02:02.568Z,16.14
2022-11-26T01:02:34.010Z,16.13
2022-11-26T01:03:05.411Z,16.13
2022-11-26T01:03:36.942Z,16.13
2022-11-26T01:04:08.352Z,16.13
2022-11-26T01:04:40.019Z,16.12
2022-11-26T01:05:11.532Z,16.12
2022-11-26T01:05:42.915Z,16.12
2022-11-26T01:06:14.309Z,16.11
2022-11-26T01:06:45.699Z,16.11
2022-11-26T01:07:17.213Z,16.11
2022-11-26T01:07:48.699Z,16.10
2022-11-26T01:08:20.135Z,16.11
2022-11-26T01:08:51.545Z,16.09
2022-11-26T01:09:22.943Z,16.10
2022-11-26T01:09:54.343Z,16.09
2022-11-26T01:10:25.743Z,16.08
2022-11-26T01:10:57.133Z,16.09
2022-11-26T01:11:28.532Z,16.08
2022-11-26T01:11:59.931Z,16.09
2022-11-26T01:12:31.323Z,16.08
2022-11-26T01:13:02.737Z,16.07
2022-11-26T01:13:34.153Z,16.08
2022-11-26T01:14:05.655Z,16.07
2022-11-26T01:14:37.224Z,16.07
2022-11-26T01:15:08.811Z,16.06
2022-11-26T01:15:40.219Z,16.06
2022-11-26T01:16:11.641Z,16.06
2022-11-26T01:16:43.088Z,16.05
2022-11-26T01:17:14.505Z,16.04
2022-11-26T01:17:45.901Z,16.05
2022-11-26T01:18:17.287Z,16.04
2022-11-26T01:18:48.680Z,16.04
2022-11-26T01:19:20.142Z,16.03
2022-11-26T01:19:51.563Z,16.04
2022-11-26T01:20:25.516Z,16.04
2022-11-26T01:20:57.131Z,16.03
2022-11-26T01:21:28.523Z,16.02
2022-11-26T01:21:59.915Z,16.02
2022-11-26T01:22:31.331Z,16.02
2022-11-26T01:23:02.764Z,16.02
2022-11-26T01:23:34.224Z,16.01
2022-11-26T01:24:05.715Z,16.01
2022-11-26T01:24:37.376Z,16.01
2022-11-26T01:25:08.934Z,16.00
2022-11-26T01:25:40.338Z,16.00
2022-11-26T01:26:11.727Z,16.00
2022-11-26T01:26:43.314Z,15.99
2022-11-26T01:27:14.753Z,16.00
2022-11-26T01:27:46.140Z,15.99
2022-11-26T01:28:17.552Z,15.98
2022-11-26T01:28:48.947Z,15.99
2022-11-26T01:29:20.428Z,15.98
2022-11-26T01:29:51.819Z,15.98
2022-11-26T01:30:23.236Z,15.97
2022-11-26T01:30:54.644Z,15.97
2022-11-26T01:31:26.086Z,15.97
2022-11-26T01:31:57.565Z,15.97
2022-11-26T01:32:29.719Z,15.96
2022-11-26T01:33:01.186Z,15.96
2022-11-26T01:33:32.580Z,15.96
2022-11-26T01:34:03.972Z,15.96
2022-11-26T01:34:35.615Z,15.96
2022-11-26T01:35:07.136Z,15.94
2022-11-26T01:35:38.528Z,15.95
2022-11-26T01:36:09.918Z,15.95
2022-11-26T01:36:41.330Z,15.95
2022-11-26T01:37:12.723Z,15.94
2022-11-26T01:37:44.120Z,15.94
2022-11-26T01:38:15.527Z,15.94
2022-11-26T01:38:46.937Z,15.93
2022-11-26T01:39:18.331Z,15.94
2022-11-26T01:39:49.848Z,15.94
2022-11-26T01:40:21.236Z,15.93
2022-11-26T01:40:52.635Z,15.94
2022-11-26T01:41:24.019Z,15.93
2022-11-26T01:41:55.413Z,15.92
2022-11-26T01:42:26.806Z,15.93
2022-11-26T01:42:58.211Z,15.92
2022-11-26T01:43:29.598Z,15.92
2022-11-26T01:44:00.984Z,15.92
2022-11-26T01:44:32.374Z,15.92
2022-11-26T01:45:04.025Z,15.92
2022-11-26T01:45:35.469Z,15.91
2022-11-26T01:46:06.962Z,15.91
2022-11-26T01:46:38.372Z,15.92
2022-11-26T01:47:09.762Z,15.91
2022-11-26T01:47:41.159Z,15.91
2022-11-26T01:48:12.564Z,15.90
2022-11-26T01:48:43.962Z,15.90
2022-11-26T01:49:15.354Z,15.91
2022-11-26T01:49:46.756Z,15.90
2022-11-26T01:50:18.377Z,15.88
2022-11-26T01:50:49.794Z,15.89
2022-11-26T01:51:21.189Z,15.88
2022-11-26T01:51:52.589Z,15.88
2022-11-26T01:52:23.980Z,15.89
2022-11-26T01:52:55.368Z,15.88
2022-11-26T01:53:26.775Z,15.88
2022-11-26T01:53:58.167Z,15.87
2022-11-26T01:54:29.562Z,15.86
2022-11-26T01:55:01.007Z,15.86
2022-11-26T01:55:32.530Z,15.86
2022-11-26T01:56:03.921Z,15.85
2022-11-26T01:56:35.305Z,15.86
2022-11-26T01:57:06.722Z,15.85
2022-11-26T01:57:38.120Z,15.85
2022-11-26T01:58:09.515Z,15.84
2022-11-26T01:58:40.945Z,15.84
2022-11-26T01:59:12.340Z,15.83
2022-11-26T01:59:43.757Z,15.84
2022-11-26T02:00:15.163Z,15.83
2022-11-26T02:00:46.675Z,15.83
2022-11-26T02:01:18.205Z,15.83
2022-11-26T02:01:49.715Z,15.83
2022-11-26T02:02:21.187Z,15.82
2022-11-26T02:02:52.591Z,15.81
2022-11-26T02:03:24.146Z,15.81
2022-11-26T02:03:55.539Z,15.81
2022-11-26T02:04:26.923Z,15.81
2022-11-26T02:04:58.331Z,15.81
2022-11-26T02:05:29.724Z,15.80
2022-11-26T02:06:01.130Z,15.81
2022-11-26T02:06:32.520Z,15.80
2022-11-26T02:07:03.944Z,15.79
2022-11-26T02:07:35.394Z,15.80
2022-11-26T02:08:06.811Z,15.79
2022-11-26T02:08:38.205Z,15.79
2022-11-26T02:09:09.595Z,15.80
2022-11-26T02:09:40.990Z,15.79
2022-11-26T02:10:12.395Z,15.78
2022-11-26T02:10:43.892Z,15.78
2022-11-26T02:11:15.374Z,15.78
2022-11-26T02:11:46.767Z,15.77
2022-11-26T02:12:18.165Z,15.78
2022-11-26T02:12:49.556Z,15.75
2022-11-26T02:13:20.945Z,15.76
2022-11-26T02:13:52.337Z,15.75
2022-11-26T02:14:23.726Z,15.76
2022-11-26T02:14:55.116Z,15.74
2022-11-26T02:15:26.534Z,15.75
2022-11-26T02:15:58.045Z,15.74
2022-11-26T02:16:29.524Z,15.74
2022-11-26T02:17:00.972Z,15.74
2022-11-26T02:17:32.394Z,15.74
2022-11-26T02:18:03.779Z,15.73
2022-11-26T02:18:35.172Z,15.72
2022-11-26T02:19:06.563Z,15.72
2022-11-26T02:19:37.954Z,15.72
2022-11-26T02:20:09.381Z,15.72
2022-11-26T02:20:40.779Z,15.72
2022-11-26T02:21:12.320Z,15.72
2022-11-26T02:21:43.703Z,15.71
2022-11-26T02:22:15.092Z,15.71
2022-11-26T02:22:46.492Z,15.71
2022-11-26T02:23:17.915Z,15.70
2022-11-26T02:23:49.319Z,15.71
2022-11-26T02:24:20.707Z,15.71
2022-11-26T02:24:52.095Z,15.70
2022-11-26T02:25:23.488Z,15.70
2022-11-26T02:25:54.876Z,15.70
2022-11-26T02:26:26.370Z,15.70
2022-11-26T02:26:57.761Z,15.69
2022-11-26T02:27:29.156Z,15.69
2022-11-26T02:28:00.558Z,15.69
2022-11-26T02:28:31.987Z,15.68
2022-11-26T02:29:03.399Z,15.69
2022-11-26T02:29:34.787Z,15.68
2022-11-26T02:30:06.202Z,15.69
2022-11-26T02:30:37.595Z,15.68
2022-11-26T02:31:08.979Z,15.68
2022-11-26T02:31:40.460Z,15.68
2022-11-26T02:32:11.887Z,15.67
2022-11-26T02:32:43.336Z,15.67
2022-11-26T02:33:14.714Z,15.67
2022-11-26T02:33:46.103Z,15.67
2022-11-26T02:34:17.497Z,15.67
2022-11-26T02:34:49.008Z,15.66
2022-11-26T02:35:20.418Z,15.65
2022-11-26T02:35:51.802Z,15.66
2022-11-26T02:36:23.196Z,15.65
2022-11-26T02:36:54.703Z,15.66
2022-11-26T02:37:26.123Z,15.66
2022-11-26T02:37:57.530Z,15.65
2022-11-26T02:38:28.925Z,15.64
2022-11-26T02:39:00.405Z,15.65
2022-11-26T02:39:31.810Z,15.64
2022-11-26T02:40:03.204Z,15.64
2022-11-26T02:40:34.604Z,15.64
2022-11-26T02:41:06.010Z,15.63
2022-11-26T02:41:37.399Z,15.64
2022-11-26T02:42:09.069Z,15.63
2022-11-26T02:42:40.483Z,15.62
2022-11-26T02:43:11.897Z,15.62
2022-11-26T02:43:43.284Z,15.62
2022-11-26T02:44:14.666Z,15.61
2022-11-26T02:44:46.078Z,15.61
2022-11-26T02:45:17.491Z,15.61
2022-11-26T02:45:48.950Z,15.60
2022-11-26T02:46:20.524Z,15.60
2022-11-26T02:46:52.110Z,15.60
2022-11-26T02:47:23.640Z,15.60
2022-11-26T02:47:55.030Z,15.59
2022-11-26T02:48:26.418Z,15.59
2022-11-26T02:48:57.822Z,15.60
2022-11-26T02:49:29.238Z,15.59
2022-11-26T02:50:00.763Z,15.59
2022-11-26T02:50:32.172Z,15.59
2022-11-26T02:51:03.567Z,15.58
2022-11-26T02:51:35.144Z,15.58
2022-11-26T02:52:06.574Z,15.59
2022-11-26T02:52:38.005Z,15.58
2022-11-26T02:53:09.395Z,15.58
2022-11-26T02:53:40.792Z,15.58
2022-11-26T02:54:12.202Z,15.57
2022-11-26T02:54:43.592Z,15.56
2022-11-26T02:55:14.987Z,15.57
2022-11-26T02:55:46.399Z,15.57
2022-11-26T02:56:17.790Z,15.56
2022-11-26T02:56:49.180Z,15.56
2022-11-26T02:57:20.586Z,15.56
2022-11-26T02:57:52.090Z,15.56
2022-11-26T02:58:23.479Z,15.55
2022-11-26T02:58:54.944Z,15.54
2022-11-26T02:59:26.330Z,15.55
2022-11-26T02:59:57.745Z,15.54
2022-11-26T03:00:29.137Z,15.54
2022-11-26T03:01:00.632Z,15.54
2022-11-26T03:01:32.116Z,15.53
2022-11-26T03:02:03.595Z,15.52
2022-11-26T03:02:35.002Z,15.52
2022-11-26T03:03:06.447Z,15.51
2022-11-26T03:03:37.883Z,15.52
2022-11-26T03:04:09.361Z,15.52
2022-11-26T03:04:41.020Z,15.51
2022-11-26T03:05:12.659Z,15.51
2022-11-26T03:05:44.062Z,15.51
2022-11-26T03:06:15.479Z,15.50
2022-11-26T03:06:46.875Z,15.50
2022-11-26T03:07:18.374Z,15.50
2022-11-26T03:07:49.927Z,15.49
2022-11-26T03:08:21.412Z,15.49
2022-11-26T03:08:52.900Z,15.48
2022-11-26T03:09:24.291Z,15.48
2022-11-26T03:09:55.680Z,15.48
2022-11-26T03:10:27.087Z,15.47
2022-11-26T03:10:58.510Z,15.46
2022-11-26T03:11:29.927Z,15.47
2022-11-26T03:12:01.443Z,15.47
2022-11-26T03:12:32.887Z,15.45
2022-11-26T03:13:04.365Z,15.46
2022-11-26T03:13:35.754Z,15.46
2022-11-26T03:14:07.152Z,15.45
2022-11-26T03:14:38.816Z,15.46
2022-11-26T03:15:10.391Z,15.44
2022-11-26T03:15:41.783Z,15.45
2022-11-26T03:16:13.259Z,15.45
2022-11-26T03:16:44.760Z,15.44
2022-11-26T03:17:16.275Z,15.44
2022-11-26T03:17:47.661Z,15.44
2022-11-26T03:18:19.124Z,15.44
2022-11-26T03:18:50.515Z,15.43
2022-11-26T03:19:21.912Z,15.43
2022-11-26T03:19:53.298Z,15.43
2022-11-26T03:20:24.691Z,15.42
2022-11-26T03:20:56.119Z,15.42
2022-11-26T03:21:27.503Z,15.42
2022-11-26T03:21:58.894Z,15.42
2022-11-26T03:22:30.286Z,15.41
2022-11-26T03:23:01.675Z,15.42
2022-11-26T03:23:33.066Z,15.41
2022-11-26T03:24:04.475Z,15.42
2022-11-26T03:24:35.992Z,15.41
2022-11-26T03:25:07.487Z,15.40
2022-11-26T03:25:38.880Z,15.41
2022-11-26T03:26:10.271Z,15.41
2022-11-26T03:26:41.659Z,15.40
2022-11-26T03:27:13.060Z,15.41
2022-11-26T03:27:44.443Z,15.41
2022-11-26T03:28:15.828Z,15.40
2022-11-26T03:28:47.349Z,15.39
2022-11-26T03:29:18.803Z,15.40
2022-11-26T03:29:50.206Z,15.40
2022-11-26T03:30:21.610Z,15.39
2022-11-26T03:30:53.019Z,15.39
2022-11-26T03:31:24.460Z,15.39
2022-11-26T03:31:55.961Z,15.38
2022-11-26T03:32:27.447Z,15.38
2022-11-26T03:32:58.848Z,15.38
2022-11-26T03:33:30.243Z,15.37
2022-11-26T03:34:01.654Z,15.38
2022-11-26T03:34:33.047Z,15.38
2022-11-26T03:35:04.447Z,15.36
2022-11-26T03:35:35.834Z,15.36
2022-11-26T03:36:07.238Z,15.36
2022-11-26T03:36:38.632Z,15.37
2022-11-26T03:37:10.034Z,15.36
2022-11-26T03:37:41.418Z,15.36
2022-11-26T03:38:12.808Z,15.36
2022-11-26T03:38:44.325Z,15.36
2022-11-26T03:39:15.721Z,15.35
2022-11-26T03:39:47.112Z,15.35
2022-11-26T03:40:18.500Z,15.35
2022-11-26T03:40:49.892Z,15.35
2022-11-26T03:41:21.278Z,15.33
2022-11-26T03:41:52.660Z,15.35
2022-11-26T03:42:24.050Z,15.34
2022-11-26T03:42:55.459Z,15.34
2022-11-26T03:43:26.851Z,15.33
2022-11-26T03:43:58.404Z,15.33
2022-11-26T03:44:29.795Z,15.33
2022-11-26T03:45:01.187Z,15.33
2022-11-26T03:45:32.631Z,15.33
2022-11-26T03:46:04.185Z,15.32
2022-11-26T03:46:35.623Z,15.32
2022-11-26T03:47:07.025Z,15.32
2022-11-26T03:47:38.406Z,15.32
2022-11-26T03:48:09.801Z,15.31
2022-11-26T03:48:41.190Z,15.31
2022-11-26T03:49:12.860Z,15.30
2022-11-26T03:49:44.245Z,15.30
2022-11-26T03:50:15.662Z,15.30
2022-11-26T03:50:47.051Z,15.30
2022-11-26T03:51:18.459Z,15.30
2022-11-26T03:51:49.871Z,15.29
2022-11-26T03:52:21.264Z,15.28
2022-11-26T03:52:52.663Z,15.29
2022-11-26T03:53:24.052Z,15.28
2022-11-26T03:53:55.511Z,15.29
2022-11-26T03:54:26.947Z,15.28
2022-11-26T03:54:58.330Z,15.29
2022-11-26T03:55:29.734Z,15.27
2022-11-26T03:56:01.131Z,15.27
2022-11-26T03:56:32.526Z,15.26
2022-11-26T03:57:03.917Z,15.27
2022-11-26T03:57:35.349Z,15.27
2022-11-26T03:58:06.760Z,15.26
2022-11-26T03:58:38.148Z,15.25
2022-11-26T03:59:09.568Z,15.27
2022-11-26T03:59:41.075Z,15.26
2022-11-26T04:00:12.474Z,15.25
2022-11-26T04:00:43.868Z,15.26
2022-11-26T04:01:15.303Z,15.25
2022-11-26T04:01:46.729Z,15.25
2022-11-26T04:02:18.170Z,15.24
2022-11-26T04:02:49.590Z,15.24
2022-11-26T04:03:21.052Z,15.24
2022-11-26T04:03:52.478Z,15.23
2022-11-26T04:04:23.859Z,15.23
2022-11-26T04:04:55.288Z,15.22
2022-11-26T04:05:26.695Z,15.22
2022-11-26T04:05:58.091Z,15.21
2022-11-26T04:06:29.487Z,15.22
2022-11-26T04:07:00.886Z,15.21
2022-11-26T04:07:32.286Z,15.22
2022-11-26T04:08:03.722Z,15.21
2022-11-26T04:08:35.126Z,15.20
2022-11-26T04:09:06.518Z,15.20
2022-11-26T04:09:37.930Z,15.20
2022-11-26T04:10:09.408Z,15.18
2022-11-26T04:10:40.800Z,15.20
2022-11-26T04:11:12.196Z,15.20
2022-11-26T04:11:43.588Z,15.19
2022-11-26T04:12:14.975Z,15.19
2022-11-26T04:12:46.401Z,15.20
2022-11-26T04:13:17.795Z,15.18
2022-11-26T04:13:49.187Z,15.18
2022-11-26T04:14:20.595Z,15.17
2022-11-26T04:14:51.993Z,15.17
2022-11-26T04:15:23.463Z,15.18
2022-11-26T04:15:54.857Z,15.17
2022-11-26T04:16:26.303Z,15.18
2022-11-26T04:16:57.828Z,15.17
2022-11-26T04:17:29.291Z,15.17
2022-11-26T04:18:00.680Z,15.17
2022-11-26T04:18:32.083Z,15.17
2022-11-26T04:19:03.499Z,15.16
2022-11-26T04:19:34.906Z,15.16
2022-11-26T04:20:06.408Z,15.16
2022-11-26T04:20:37.803Z,15.15
2022-11-26T04:21:09.211Z,15.16
2022-11-26T04:21:40.611Z,15.16
2022-11-26T04:22:12.015Z,15.16
2022-11-26T04:22:43.409Z,15.16
2022-11-26T04:23:14.796Z,15.15
2022-11-26T04:23:46.192Z,15.15
2022-11-26T04:24:17.596Z,15.16
2022-11-26T04:24:49.016Z,15.16
2022-11-26T04:25:20.444Z,15.14
2022-11-26T04:25:51.834Z,15.15
2022-11-26T04:26:23.227Z,15.15
2022-11-26T04:26:54.619Z,15.14
2022-11-26T04:27:26.039Z,15.14
2022-11-26T04:27:57.435Z,15.14
2022-11-26T04:28:28.954Z,15.14
2022-11-26T04:29:00.346Z,15.14
2022-11-26T04:29:31.760Z,15.13
2022-11-26T04:30:03.171Z,15.15
2022-11-26T04:30:34.618Z,15.14
2022-11-26T04:31:06.008Z,15.13
2022-11-26T04:31:37.537Z,15.12
2022-11-26T04:32:09.011Z,15.13
2022-11-26T04:32:40.458Z,15.13
2022-11-26T04:33:11.852Z,15.14
2022-11-26T04:33:43.259Z,15.12
2022-11-26T04:34:14.652Z,15.12
2022-11-26T04:34:46.065Z,15.12
2022-11-26T04:35:17.481Z,15.11
2022-11-26T04:35:48.985Z,15.12
2022-11-26T04:36:20.374Z,15.12
2022-11-26T04:36:51.774Z,15.11
2022-11-26T04:37:23.166Z,15.11
2022-11-26T04:37:54.554Z,15.10
2022-11-26T04:38:26.224Z,15.10
2022-11-26T04:38:57.677Z,15.11
2022-11-26T04:39:29.067Z,15.10
2022-11-26T04:40:00.460Z,15.10
2022-11-26T04:40:31.851Z,15.09
2022-11-26T04:41:03.448Z,15.09
2022-11-26T04:41:34.864Z,15.09
2022-11-26T04:42:06.276Z,15.09
2022-11-26T04:42:37.673Z,15.09
2022-11-26T04:43:09.060Z,15.08
2022-11-26T04:43:40.455Z,15.08
2022-11-26T04:44:11.858Z,15.08
2022-11-26T04:44:43.263Z,15.08
2022-11-26T04:45:14.647Z,15.07
2022-11-26T04:45:46.071Z,15.06
2022-11-26T04:46:17.550Z,15.06
2022-11-26T04:46:48.972Z,15.05
2022-11-26T04:47:20.359Z,15.07
2022-11-26T04:47:51.746Z,15.06
2022-11-26T04:48:23.194Z,15.06
2022-11-26T04:48:54.597Z,15.06
2022-11-26T04:49:26.015Z,15.05
2022-11-26T04:49:57.478Z,15.05
2022-11-26T04:50:28.866Z,15.05
2022-11-26T04:51:00.253Z,15.05
2022-11-26T04:51:31.775Z,15.03
2022-11-26T04:52:03.179Z,15.05
2022-11-26T04:52:34.590Z,15.03
2022-11-26T04:53:05.987Z,15.03
2022-11-26T04:53:37.390Z,15.03
2022-11-26T04:54:12.782Z,15.03
2022-11-26T04:54:44.647Z,15.03
2022-11-26T04:55:16.072Z,15.03
2022-11-26T04:55:47.460Z,15.01
2022-11-26T04:56:18.856Z,15.01
2022-11-26T04:56:50.361Z,15.01
2022-11-26T04:57:21.767Z,15.02
2022-11-26T04:57:53.156Z,15.00
2022-11-26T04:58:24.568Z,15.01
2022-11-26T04:58:55.963Z,15.00
2022-11-26T04:59:27.489Z,14.99
2022-11-26T04:59:58.898Z,15.00
2022-11-26T05:00:30.294Z,15.00
2022-11-26T05:01:01.706Z,15.00
2022-11-26T05:01:33.187Z,15.00
2022-11-26T05:02:04.724Z,14.99
2022-11-26T05:02:36.182Z,14.99
2022-11-26T05:03:07.737Z,14.98
2022-11-26T05:03:39.191Z,14.98
2022-11-26T05:04:10.570Z,14.99
2022-11-26T05:04:41.954Z,14.99
2022-11-26T05:05:13.373Z,14.98
2022-11-26T05:05:44.779Z,14.97
2022-11-26T05:06:16.163Z,14.98
2022-11-26T05:06:47.639Z,14.96
2022-11-26T05:07:19.126Z,14.96
2022-11-26T05:07:50.693Z,14.97
2022-11-26T05:08:22.175Z,14.97
2022-11-26T05:08:53.557Z,14.96
2022-11-26T05:09:24.958Z,14.96
2022-11-26T05:09:56.349Z,14.95
2022-11-26T05:10:27.736Z,14.96
2022-11-26T05:10:59.194Z,14.95
2022-11-26T05:11:30.598Z,14.95
2022-11-26T05:12:02.011Z,14.96
2022-11-26T05:12:33.544Z,14.95
2022-11-26T05:13:05.006Z,14.94
2022-11-26T05:13:36.454Z,14.94
2022-11-26T05:14:07.841Z,14.95
2022-11-26T05:14:39.602Z,14.95
2022-11-26T05:15:11.192Z,14.93
2022-11-26T05:15:42.605Z,14.94
2022-11-26T05:16:14.053Z,14.94
2022-11-26T05:16:45.570Z,14.92
2022-11-26T05:17:17.020Z,14.93
2022-11-26T05:17:48.527Z,14.93
2022-11-26T05:18:19.917Z,14.92
2022-11-26T05:18:51.311Z,14.92
2022-11-26T05:19:22.720Z,14.92
2022-11-26T05:19:54.105Z,14.92
2022-11-26T05:20:25.508Z,14.92
2022-11-26T05:20:56.896Z,14.91
2022-11-26T05:21:28.301Z,14.91
2022-11-26T05:21:59.704Z,14.90
2022-11-26T05:22:31.103Z,14.91
2022-11-26T05:23:02.587Z,14.91
2022-11-26T05:23:33.983Z,14.91
2022-11-26T05:24:05.370Z,14.91
2022-11-26T05:24:36.952Z,14.89
2022-11-26T05:25:08.601Z,14.89
2022-11-26T05:25:40.020Z,14.90
2022-11-26T05:26:11.449Z,14.89
2022-11-26T05:26:42.835Z,14.88
2022-11-26T05:27:14.226Z,14.89
2022-11-26T05:27:45.615Z,14.89
2022-11-26T05:28:17.151Z,14.88
2022-11-26T05:28:48.534Z,14.88
2022-11-26T05:29:19.923Z,14.88
2022-11-26T05:29:51.311Z,14.88
2022-11-26T05:30:22.705Z,14.88
2022-11-26T05:30:54.111Z,14.87
2022-11-26T05:31:25.700Z,14.88
2022-11-26T05:31:57.231Z,14.87
2022-11-26T05:32:28.695Z,14.87
2022-11-26T05:33:00.094Z,14.87
2022-11-26T05:33:31.739Z,14.86
2022-11-26T05:34:03.126Z,14.86
2022-11-26T05:34:34.519Z,14.87
2022-11-26T05:35:05.907Z,14.86
2022-11-26T05:35:37.335Z,14.86
2022-11-26T05:36:08.723Z,14.85
2022-11-26T05:36:40.115Z,14.85
2022-11-26T05:37:11.508Z,14.86
2022-11-26T05:37:42.899Z,14.86
2022-11-26T05:38:14.311Z,14.86
2022-11-26T05:38:45.769Z,14.85
2022-11-26T05:39:17.161Z,14.86
2022-11-26T05:39:48.547Z,14.85
2022-11-26T05:40:19.954Z,14.84
2022-11-26T05:40:51.364Z,14.85
2022-11-26T05:41:22.774Z,14.85
2022-11-26T05:41:54.173Z,14.84
2022-11-26T05:42:25.564Z,14.84
2022-11-26T05:42:56.979Z,14.85
2022-11-26T05:43:28.387Z,14.84
2022-11-26T05:43:59.855Z,14.84
2022-11-26T05:44:31.239Z,14.85
2022-11-26T05:45:02.623Z,14.84
2022-11-26T05:45:34.261Z,14.84
2022-11-26T05:46:05.728Z,14.84
2022-11-26T05:46:37.129Z,14.84
2022-11-26T05:47:08.548Z,14.83
2022-11-26T05:47:39.947Z,14.82
2022-11-26T05:48:11.359Z,14.83
2022-11-26T05:48:42.761Z,14.82
2022-11-26T05:49:14.255Z,14.82
2022-11-26T05:49:45.649Z,14.82
2022-11-26T05:50:17.042Z,14.82
2022-11-26T05:50:53.147Z,14.82
2022-11-26T05:51:25.912Z,14.82
2022-11-26T05:51:57.342Z,14.80
2022-11-26T05:52:28.730Z,14.81
2022-11-26T05:53:00.134Z,14.81
2022-11-26T05:53:31.536Z,14.81
2022-11-26T05:54:02.942Z,14.80
2022-11-26T05:54:34.332Z,14.80
2022-11-26T05:55:05.732Z,14.78
2022-11-26T05:55:37.139Z,14.79
2022-11-26T05:56:08.626Z,14.79
2022-11-26T05:56:40.017Z,14.78
2022-11-26T05:57:11.420Z,14.78
2022-11-26T05:57:42.816Z,14.77
2022-11-26T05:58:14.223Z,14.78
2022-11-26T05:58:45.629Z,14.78
2022-11-26T05:59:17.143Z,14.78
2022-11-26T05:59:48.550Z,14.77
2022-11-26T06:00:19.943Z,14.78
2022-11-26T06:00:51.354Z,14.78
2022-11-26T06:01:22.768Z,14.77
2022-11-26T06:01:54.233Z,14.77
2022-11-26T06:02:25.799Z,14.76
2022-11-26T06:02:57.336Z,14.76
2022-11-26T06:03:28.931Z,14.77
2022-11-26T06:04:00.407Z,14.76
2022-11-26T06:04:31.867Z,14.76
2022-11-26T06:05:03.259Z,14.76
2022-11-26T06:05:34.678Z,14.76
2022-11-26T06:06:06.064Z,14.76
2022-11-26T06:06:37.447Z,14.76
2022-11-26T06:07:08.914Z,14.76
2022-11-26T06:07:44.669Z,14.74
2022-11-26T06:08:16.525Z,14.76
2022-11-26T06:08:47.935Z,14.74
2022-11-26T06:09:19.458Z,14.74
2022-11-26T06:09:50.843Z,14.74
2022-11-26T06:10:22.230Z,14.73
2022-11-26T06:10:53.619Z,14.74
2022-11-26T06:11:25.015Z,14.74
2022-11-26T06:11:56.443Z,14.74
2022-11-26T06:12:27.867Z,14.73
2022-11-26T06:12:59.257Z,14.74
2022-11-26T06:13:30.651Z,14.73
2022-11-26T06:14:02.036Z,14.72
2022-11-26T06:14:33.534Z,14.73
2022-11-26T06:15:04.927Z,14.73
2022-11-26T06:15:36.450Z,14.72
2022-11-26T06:16:07.919Z,14.72
2022-11-26T06:16:39.346Z,14.72
2022-11-26T06:17:10.785Z,14.72
2022-11-26T06:17:42.175Z,14.71
2022-11-26T06:18:13.638Z,14.72
2022-11-26T06:18:45.030Z,14.71
2022-11-26T06:19:16.443Z,14.71
2022-11-26T06:19:47.858Z,14.70
2022-11-26T06:20:19.332Z,14.70
2022-11-26T06:20:50.726Z,14.70
2022-11-26T06:21:22.128Z,14.71
2022-11-26T06:21:53.550Z,14.70
2022-11-26T06:22:24.952Z,14.70
2022-11-26T06:22:56.343Z,14.71
2022-11-26T06:23:27.736Z,14.70
2022-11-26T06:23:59.681Z,14.69
2022-11-26T06:24:31.442Z,14.69
2022-11-26T06:25:02.829Z,14.69
2022-11-26T06:25:34.242Z,14.70
2022-11-26T06:26:05.626Z,14.69
2022-11-26T06:26:37.090Z,14.69
2022-11-26T06:27:08.500Z,14.68
2022-11-26T06:27:39.949Z,14.68
2022-11-26T06:28:11.393Z,14.68
2022-11-26T06:28:42.788Z,14.67
2022-11-26T06:29:14.196Z,14.68
2022-11-26T06:29:45.611Z,14.67
2022-11-26T06:30:17.089Z,14.67
2022-11-26T06:30:48.489Z,14.66
2022-11-26T06:31:19.946Z,14.66
2022-11-26T06:31:51.712Z,14.66
2022-11-26T06:32:23.111Z,14.65
2022-11-26T06:32:54.518Z,14.65
2022-11-26T06:33:25.928Z,14.66
2022-11-26T06:33:57.320Z,14.65
2022-11-26T06:34:28.850Z,14.64
2022-11-26T06:35:00.263Z,14.65
2022-11-26T06:35:31.648Z,14.65
2022-11-26T06:36:03.034Z,14.64
2022-11-26T06:36:34.441Z,14.64
2022-11-26T06:37:05.830Z,14.64
2022-11-26T06:37:37.269Z,14.64
2022-11-26T06:38:08.670Z,14.64
2022-11-26T06:38:40.080Z,14.64
2022-11-26T06:39:11.471Z,14.64
2022-11-26T06:39:42.987Z,14.64
2022-11-26T06:40:14.403Z,14.63
2022-11-26T06:40:45.797Z,14.64
2022-11-26T06:41:17.195Z,14.63
2022-11-26T06:41:48.629Z,14.64
2022-11-26T06:42:20.022Z,14.63
2022-11-26T06:42:51.437Z,14.63
2022-11-26T06:43:22.828Z,14.63
2022-11-26T06:43:54.213Z,14.62
2022-11-26T06:44:25.699Z,14.62
2022-11-26T06:44:59.851Z,14.63